Time;durP1;ratioP1;P1;durP2;ratioP2;P2;SDS_P1;SDS_P2;PMS_P1;PMS_P2;Temp;Humidity;BMP_temperature;BMP_pressure;BME280_temperature;BME280_humidity;BME280_pressure;Samples;Min_cycle;Max_cycle;Signal;HPM_P1;HPM_P2
2022/02/07 00:01:44;;;;;;;48.40;18.70;;;;;;;-2.24;61.31;98671.97;5009304;28;20046;-80
2022/02/07 00:04:00;;;;;;;42.63;17.55;;;;;;;-2.65;60.76;98654.81;5008052;28;20084;-79
2022/02/07 00:06:26;;;;;;;42.50;18.38;;;;;;;-2.80;61.20;98663.78;5013865;28;20037;-79
2022/02/07 00:08:52;;;;;;;45.70;19.08;;;;;;;-3.00;61.26;98659.84;5010939;28;20045;-78
2022/02/07 00:11:19;;;;;;;43.25;17.90;;;;;;;-2.83;61.76;98673.88;4998240;28;20068;-79
2022/02/07 00:13:45;;;;;;;44.67;17.75;;;;;;;-3.01;61.23;98660.66;5010689;28;20632;-80
2022/02/07 00:16:11;;;;;;;48.47;19.75;;;;;;;-3.14;62.51;98652.66;4998376;28;20094;-80
2022/02/07 00:18:39;;;;;;;48.28;19.88;;;;;;;-2.88;62.95;98670.34;5016760;28;20048;-81
2022/02/07 00:21:05;;;;;;;48.05;19.77;;;;;;;-2.69;62.19;98669.16;4994474;28;20067;-78
2022/02/07 00:23:31;;;;;;;49.75;19.02;;;;;;;-2.74;62.56;98638.44;5009500;28;20099;-77
2022/02/07 00:25:58;;;;;;;48.72;21.02;;;;;;;-2.49;62.51;98663.72;4999359;28;20447;-81
2022/02/07 00:28:24;;;;;;;51.30;20.08;;;;;;;-2.47;63.10;98659.50;4997089;28;20106;-82
2022/02/07 00:30:50;;;;;;;48.72;19.95;;;;;;;-2.69;62.37;98633.50;4998543;28;20131;-80
2022/02/07 00:33:16;;;;;;;47.35;20.00;;;;;;;-2.80;62.51;98625.59;4981030;28;20043;-81
2022/02/07 00:35:42;;;;;;;54.30;21.92;;;;;;;-2.80;61.62;98647.63;4997219;28;20555;-79
2022/02/07 00:38:14;;;;;;;48.42;19.77;;;;;;;-2.89;62.53;98646.56;5011612;28;20040;-80
2022/02/07 00:43:26;;;;;;;55.13;20.58;;;;;;;-3.27;61.36;98637.88;5011315;28;20137;-79
2022/02/07 00:45:56;;;;;;;59.40;22.45;;;;;;;-3.47;62.46;98653.47;5027528;28;20079;-79
2022/02/07 00:48:25;;;;;;;52.33;21.98;;;;;;;-3.62;62.73;98620.81;4999138;28;20048;-79
2022/02/07 00:50:55;;;;;;;51.97;21.02;;;;;;;-3.36;62.41;98652.06;4993592;28;20036;-81
2022/02/07 00:53:25;;;;;;;54.17;21.00;;;;;;;-3.30;62.79;98648.81;4997560;28;20053;-80
2022/02/07 00:55:52;;;;;;;48.17;19.85;;;;;;;-3.52;61.96;98635.50;4990994;28;20141;-80
2022/02/07 00:58:19;;;;;;;47.33;19.15;;;;;;;-3.95;61.86;98619.84;4992190;28;20041;-80
2022/02/07 01:00:45;;;;;;;45.83;19.42;;;;;;;-4.19;62.08;98597.06;4999947;28;20072;-81
2022/02/07 01:03:12;;;;;;;48.05;20.67;;;;;;;-3.91;63.42;98638.59;5011607;28;20056;-80
2022/02/07 01:05:41;;;;;;;58.63;21.52;;;;;;;-3.85;63.62;98632.81;5017833;28;20053;-80
2022/02/07 01:08:12;;;;;;;50.00;20.77;;;;;;;-3.88;62.83;98625.97;5035730;28;20041;-81
2022/02/07 01:11:09;;;;;;;52.78;19.55;;;;;;;-3.69;63.77;98650.28;5003586;28;20543;-82
2022/02/07 01:13:54;;;;;;;51.95;21.70;;;;;;;-3.59;63.98;98617.47;5010607;28;20037;-82
2022/02/07 01:47:33;;;;;;;38.30;15.57;;;;;;;-3.05;63.60;98629.16;5000542;28;19921;-76
2022/02/07 01:57:35;;;;;;;46.15;17.80;;;;;;;-3.23;64.22;98581.19;5033033;28;20041;-79
2022/02/07 02:00:04;;;;;;;43.10;18.73;;;;;;;-2.95;63.73;98625.16;5014036;28;20504;-82
2022/02/07 02:02:32;;;;;;;42.90;17.55;;;;;;;-2.90;64.25;98604.13;5028172;28;20132;-77
2022/02/07 02:04:58;;;;;;;45.17;18.48;;;;;;;-2.58;64.74;98629.53;5019879;28;20049;-82
2022/02/07 02:07:35;;;;;;;45.25;18.50;;;;;;;-2.58;64.18;98621.03;4999030;28;20045;-80
2022/02/07 02:10:03;;;;;;;43.10;16.90;;;;;;;-2.52;64.88;98599.94;5002559;28;20045;-78
2022/02/07 02:12:35;;;;;;;39.42;17.13;;;;;;;-2.45;64.22;98602.66;5037657;28;20046;-79
2022/02/07 02:35:01;;;;;;;49.75;19.08;;;;;;;-2.80;63.07;98568.69;5011207;28;20045;-79
2022/02/07 02:37:27;;;;;;;44.53;19.55;;;;;;;-2.76;64.05;98563.69;4998157;28;21476;-80
2022/02/07 02:47:50;;;;;;;33.85;15.45;;;;;;;-2.11;64.01;98582.19;5028088;28;20048;-80
2022/02/07 02:50:28;;;;;;;39.13;16.00;;;;;;;-2.09;64.75;98574.56;5008179;28;20041;-81
2022/02/07 02:52:58;;;;;;;39.97;16.17;;;;;;;-2.09;64.64;98551.63;4995007;28;20496;-80
2022/02/07 02:55:25;;;;;;;42.03;16.67;;;;;;;-1.94;64.22;98579.16;5009398;28;20095;-82
2022/02/07 02:57:51;;;;;;;33.72;13.82;;;;;;;-1.98;63.99;98588.44;4995081;28;20037;-81
2022/02/07 03:00:20;;;;;;;34.00;12.57;;;;;;;-2.12;63.62;98583.03;5016827;28;20494;-81
2022/02/07 03:02:46;;;;;;;24.63;9.77;;;;;;;-2.00;64.70;98595.19;5029269;28;20063;-79
2022/02/07 03:05:15;;;;;;;25.75;11.57;;;;;;;-2.12;64.50;98589.00;5034475;28;20450;-81
2022/02/07 03:07:41;;;;;;;29.90;12.00;;;;;;;-2.12;64.72;98576.25;4993427;28;20499;-79
2022/02/07 03:10:08;;;;;;;25.17;9.40;;;;;;;-2.05;64.98;98571.28;5011879;28;20709;-79
2022/02/07 03:12:44;;;;;;;24.92;9.52;;;;;;;-2.00;64.92;98570.56;5015136;28;20071;-79
2022/02/07 03:17:55;;;;;;;19.38;7.97;;;;;;;-1.92;65.51;98563.06;5002012;28;20098;-78
2022/02/07 03:20:22;;;;;;;17.15;7.63;;;;;;;-1.86;65.33;98575.94;5001741;28;20456;-80
2022/02/07 03:22:47;;;;;;;15.60;6.82;;;;;;;-1.86;65.14;98580.19;5009947;28;20112;-81
2022/02/07 03:25:13;;;;;;;14.98;6.65;;;;;;;-1.91;65.27;98584.31;4997573;28;20048;-83
2022/02/07 03:27:46;;;;;;;14.95;7.00;;;;;;;-1.85;65.52;98585.31;5005586;28;20095;-79
2022/02/07 03:30:22;;;;;;;17.58;7.63;;;;;;;-1.87;65.59;98565.72;4999643;28;20042;-79
2022/02/07 03:32:50;;;;;;;16.40;7.75;;;;;;;-1.74;65.67;98592.34;5018413;28;20398;-77
2022/02/07 03:35:19;;;;;;;20.20;8.55;;;;;;;-1.87;65.66;98574.22;5006393;28;20159;-78
2022/02/07 03:37:44;;;;;;;31.42;12.05;;;;;;;-1.77;64.97;98574.41;5031245;28;20044;-77
2022/02/07 03:40:14;;;;;;;36.80;15.15;;;;;;;-1.78;65.83;98570.16;5014010;28;20063;-83
2022/02/07 03:42:41;;;;;;;32.45;12.80;;;;;;;-1.75;65.99;98572.78;4990498;28;20745;-80
2022/02/07 03:45:08;;;;;;;37.22;14.18;;;;;;;-1.89;66.30;98531.66;5014026;28;20052;-79
2022/02/07 03:47:38;;;;;;;27.75;11.60;;;;;;;-1.74;65.84;98559.19;5011354;28;20041;-80
2022/02/07 03:50:06;;;;;;;21.35;11.40;;;;;;;-1.80;66.31;98541.19;4998011;28;20044;-79
2022/02/07 03:52:40;;;;;;;27.42;12.00;;;;;;;-1.62;66.36;98556.88;5032394;28;20038;-79
2022/02/07 03:55:07;;;;;;;24.85;10.32;;;;;;;-1.53;65.68;98567.28;5004642;28;20041;-79
2022/02/07 03:57:34;;;;;;;22.05;9.75;;;;;;;-1.91;66.69;98502.72;4990976;28;20091;-79
2022/02/07 04:00:04;;;;;;;18.30;8.52;;;;;;;-1.42;66.63;98582.81;5012598;28;20446;-80
2022/02/07 04:02:44;;;;;;;14.55;6.53;;;;;;;-1.53;66.89;98535.78;5028505;28;20521;-83
2022/02/07 04:07:46;;;;;;;23.05;9.90;;;;;;;-1.38;66.87;98558.19;5013181;28;20098;-83
2022/02/07 04:10:12;;;;;;;25.45;11.07;;;;;;;-1.25;67.02;98556.72;5008415;28;20135;-81
2022/02/07 04:12:40;;;;;;;26.77;10.98;;;;;;;-1.34;67.12;98534.44;5017278;28;20049;-80
2022/02/07 04:15:09;;;;;;;27.75;12.75;;;;;;;-1.49;66.91;98506.09;5014906;28;20033;-81
2022/02/07 04:17:41;;;;;;;23.33;10.63;;;;;;;-1.24;67.06;98540.59;5001604;28;20494;-79
2022/02/07 04:20:09;;;;;;;20.90;8.82;;;;;;;-1.26;66.65;98550.78;5030376;28;20044;-79
2022/02/07 04:22:47;;;;;;;20.17;7.93;;;;;;;-1.49;67.64;98506.09;5007096;28;20041;-80
2022/02/07 04:25:30;;;;;;;;;;;;;;;-1.20;67.21;98544.91;5028246;28;20038;-80
2022/02/07 04:28:03;;;;;;;20.42;8.85;;;;;;;-1.12;67.56;98547.59;5025356;28;19917;-81
2022/02/07 04:30:30;;;;;;;18.50;7.57;;;;;;;-1.32;67.68;98509.81;4988084;28;20041;-82
2022/02/07 04:32:57;;;;;;;19.20;9.15;;;;;;;-1.19;67.03;98531.31;4993875;28;20037;-84
2022/02/07 04:35:23;;;;;;;37.47;13.70;;;;;;;-1.18;67.58;98525.38;4982790;28;20095;-79
2022/02/07 04:37:48;;;;;;;35.53;13.10;;;;;;;-1.09;67.87;98533.19;5029160;28;20046;-80
2022/02/07 04:40:14;;;;;;;30.80;12.82;;;;;;;-1.06;68.06;98537.50;4986679;28;20462;-81
2022/02/07 04:42:42;;;;;;;25.25;11.85;;;;;;;-1.12;68.03;98525.50;4990664;28;20625;-81
2022/02/07 04:55:49;;;;;;;17.17;6.55;;;;;;;-1.20;67.66;98524.50;5012653;28;20048;-81
2022/02/07 05:01:09;;;;;;;15.20;7.65;;;;;;;-1.17;68.77;98528.78;4998081;28;20132;-82
2022/02/07 05:03:42;;;;;;;16.27;6.88;;;;;;;-1.07;68.50;98543.44;5012780;28;20036;-81
2022/02/07 05:14:27;;;;;;;17.05;7.10;;;;;;;-0.78;68.39;98538.00;4999849;28;20061;-81
2022/02/07 05:16:55;;;;;;;21.35;8.70;;;;;;;-0.87;68.86;98513.13;4997992;28;20037;-79
2022/02/07 05:19:27;;;;;;;18.08;7.32;;;;;;;-0.82;68.33;98511.50;5011044;28;20426;-78
2022/02/07 05:22:22;;;;;;;16.92;8.45;;;;;;;-0.79;69.12;98513.28;5005675;28;20638;-84
2022/02/07 05:26:02;;;;;;;10.65;5.47;;;;;;;-1.35;68.55;98437.44;4955943;28;20042;-80
2022/02/07 05:29:12;;;;;;;16.15;6.95;;;;;;;-1.23;68.52;98461.50;5007292;28;20122;-84
2022/02/07 05:31:56;;;;;;;16.55;6.60;;;;;;;-0.83;68.77;98529.38;5031441;28;20061;-83
2022/02/07 05:34:43;;;;;;;18.40;7.72;;;;;;;-0.76;69.12;98531.19;5000775;28;20783;-80
2022/02/07 05:37:33;;;;;;;17.23;7.03;;;;;;;-0.76;68.60;98513.28;5033495;28;20033;-81
2022/02/07 05:40:45;;;;;;;13.15;6.55;;;;;;;-0.61;69.36;98502.47;4950531;28;20141;-83
2022/02/07 05:43:34;;;;;;;17.95;6.25;;;;;;;-0.53;68.77;98513.69;4971757;28;20082;-81
2022/02/07 05:46:09;;;;;;;11.68;6.18;;;;;;;-0.53;68.72;98515.34;5003927;28;20439;-83
2022/02/07 05:49:30;;;;;;;15.70;6.53;;;;;;;-0.49;69.45;98519.69;4998198;28;20042;-82
2022/02/07 05:52:10;;;;;;;11.73;5.75;;;;;;;-0.57;69.45;98499.13;5012684;28;20042;-80
2022/02/07 05:55:03;;;;;;;13.30;6.13;;;;;;;-0.63;69.32;98497.34;4999152;28;20054;-80
2022/02/07 05:57:59;;;;;;;17.02;7.38;;;;;;;-0.38;68.90;98541.16;4990146;28;20557;-80
2022/02/07 06:00:51;;;;;;;18.67;9.15;;;;;;;-0.83;69.03;98450.19;5004500;28;20535;-79
2022/02/07 06:03:23;;;;;;;21.55;8.50;;;;;;;-1.30;69.44;98364.34;5007711;28;20199;-81
2022/02/07 06:06:11;;;;;;;24.60;11.65;;;;;;;-0.83;69.62;98419.53;5027658;28;20037;-80
2022/02/07 06:08:42;;;;;;;26.75;12.00;;;;;;;-0.17;68.99;98522.69;5017391;28;20044;-81
2022/02/07 06:11:12;;;;;;;23.42;11.55;;;;;;;-0.08;69.60;98527.06;4988593;28;20095;-79
2022/02/07 06:13:42;;;;;;;21.65;10.95;;;;;;;-0.40;69.40;98457.59;4994760;28;20810;-79
2022/02/07 06:16:15;;;;;;;22.75;10.48;;;;;;;-0.09;70.02;98494.66;5010602;28;20045;-83
2022/02/07 06:18:42;;;;;;;15.82;7.65;;;;;;;0.17;69.26;98532.53;5000211;28;20037;-80
2022/02/07 06:21:12;;;;;;;21.45;8.63;;;;;;;-0.78;68.92;98375.34;5006693;28;20037;-83
2022/02/07 06:23:46;;;;;;;28.73;13.20;;;;;;;-0.12;69.14;98476.75;5020510;28;20064;-83
2022/02/07 06:26:21;;;;;;;27.98;14.27;;;;;;;-0.50;69.20;98429.38;5015314;28;20076;-80
2022/02/07 06:29:34;;;;;;;30.30;13.20;;;;;;;-0.65;69.41;98394.25;4986860;28;20048;-80
2022/02/07 06:32:00;;;;;;;25.38;11.60;;;;;;;-0.92;69.67;98341.09;4983759;28;20071;-81
2022/02/07 06:34:39;;;;;;;23.73;11.30;;;;;;;-0.33;69.89;98427.03;5077324;23;20528;-80
2022/02/07 06:37:08;;;;;;;18.05;9.75;;;;;;;0.22;69.81;98505.31;5012943;28;20041;-81
2022/02/07 06:39:38;;;;;;;18.83;9.80;;;;;;;0.17;68.78;98496.69;5015413;28;20096;-82
2022/02/07 06:42:04;;;;;;;22.77;9.05;;;;;;;0.05;69.40;98504.25;5016620;28;20059;-80
2022/02/07 06:44:31;;;;;;;17.25;8.27;;;;;;;-0.01;69.06;98498.19;5029371;28;20057;-81
2022/02/07 06:46:59;;;;;;;20.17;9.77;;;;;;;0.16;69.71;98504.38;5008986;28;20067;-81
2022/02/07 06:49:27;;;;;;;19.67;7.75;;;;;;;0.08;69.75;98486.38;5027197;28;20446;-81
2022/02/07 06:52:04;;;;;;;17.45;8.48;;;;;;;0.28;70.00;98523.28;5012422;28;20043;-82
2022/02/07 06:54:30;;;;;;;15.30;8.32;;;;;;;0.38;69.54;98529.38;5029782;28;20044;-80
2022/02/07 06:57:01;;;;;;;20.17;8.32;;;;;;;0.31;69.80;98504.53;5046769;28;20847;-81
2022/02/07 06:59:29;;;;;;;19.70;9.15;;;;;;;0.02;68.97;98451.31;5036206;28;20044;-81
2022/02/07 07:02:00;;;;;;;25.88;10.70;;;;;;;0.38;69.43;98500.34;5019448;28;20110;-83
2022/02/07 07:04:28;;;;;;;26.63;11.90;;;;;;;0.41;68.81;98506.38;5045991;28;20040;-80
2022/02/07 07:06:55;;;;;;;30.00;11.82;;;;;;;0.57;69.56;98540.66;5029433;28;20171;-80
2022/02/07 07:09:21;;;;;;;27.58;12.82;;;;;;;0.58;69.62;98533.88;5032020;28;20567;-80
2022/02/07 07:11:48;;;;;;;32.85;14.57;;;;;;;0.13;69.22;98460.00;5013671;28;20037;-81
2022/02/07 07:14:30;;;;;;;36.25;15.32;;;;;;;-0.16;69.35;98421.28;5015731;28;20770;-82
2022/02/07 07:17:11;;;;;;;27.48;12.25;;;;;;;-0.14;69.43;98422.16;5029153;28;20063;-82
2022/02/07 07:19:47;;;;;;;19.55;8.10;;;;;;;0.03;69.57;98442.81;5012001;28;20172;-81
2022/02/07 07:22:16;;;;;;;14.35;7.88;;;;;;;0.08;69.64;98437.78;5032724;28;20045;-82
2022/02/07 07:24:46;;;;;;;15.70;7.63;;;;;;;0.66;69.36;98526.25;5026074;28;20453;-79
2022/02/07 07:27:14;;;;;;;18.02;8.02;;;;;;;-0.01;69.35;98413.78;5030138;28;20535;-80
2022/02/07 07:29:46;;;;;;;17.27;8.05;;;;;;;0.79;69.49;98538.34;5029618;28;20263;-81
2022/02/07 07:32:12;;;;;;;14.48;6.93;;;;;;;0.37;69.07;98462.81;5030107;28;20101;-82
2022/02/07 07:34:58;;;;;;;;;;;;;;;;;;;;;
2022/02/07 07:37:29;;;;;;;16.65;8.10;;;;;;;0.30;69.05;98436.28;5003773;28;20037;-80
2022/02/07 07:39:56;;;;;;;16.35;8.20;;;;;;;0.86;69.33;98514.50;5005707;28;20067;-78
2022/02/07 07:42:24;;;;;;;21.27;9.23;;;;;;;0.88;69.42;98541.00;5023819;28;20200;-83
2022/02/07 07:45:08;;;;;;;18.67;9.13;;;;;;;0.10;69.07;98419.03;5025497;28;20056;-79
2022/02/07 07:47:59;;;;;;;23.88;9.63;;;;;;;0.59;69.05;98492.06;5039367;28;20073;-80
2022/02/07 07:51:23;;;;;;;19.52;9.57;;;;;;;0.07;68.63;98419.00;5030786;28;20041;-79
2022/02/07 08:03:08;;;;;;;27.70;12.95;;;;;;;0.56;68.95;98489.47;5005877;28;20064;-81
2022/02/07 08:05:45;;;;;;;29.40;13.38;;;;;;;0.77;69.45;98523.81;4996669;28;20044;-81
2022/02/07 08:08:28;;;;;;;34.53;15.70;;;;;;;0.43;69.91;98457.75;5005719;28;20501;-81
2022/02/07 08:11:02;;;;;;;31.80;14.75;;;;;;;0.60;69.30;98475.84;5011824;28;20033;-82
2022/02/07 08:13:53;;;;;;;26.48;12.02;;;;;;;1.08;69.49;98539.50;5024575;28;20053;-82
2022/02/07 08:16:23;;;;;;;23.40;11.65;;;;;;;-0.09;69.81;98319.91;5010195;28;20087;-81
2022/02/07 08:18:49;;;;;;;24.13;10.95;;;;;;;0.35;68.73;98385.16;5010501;28;20041;-79
2022/02/07 08:21:18;;;;;;;24.67;11.90;;;;;;;0.65;69.08;98447.72;4992975;28;20195;-83
2022/02/07 08:23:45;;;;;;;23.13;11.35;;;;;;;0.71;69.62;98448.63;5004244;28;20118;-79
2022/02/07 08:26:11;;;;;;;28.88;11.98;;;;;;;0.15;68.93;98334.63;4990892;28;20045;-79
2022/02/07 08:28:39;;;;;;;28.83;10.95;;;;;;;0.55;69.22;98395.59;5023728;28;20128;-80
2022/02/07 08:31:05;;;;;;;21.67;11.45;;;;;;;0.22;69.19;98338.13;5006708;28;20037;-81
2022/02/07 08:33:31;;;;;;;19.45;9.93;;;;;;;0.84;68.89;98449.59;5004122;28;20084;-79
2022/02/07 08:36:00;;;;;;;21.98;11.60;;;;;;;1.01;69.57;98490.75;4993770;28;20037;-81
2022/02/07 08:38:36;;;;;;;;;;;;;;;;;;;;;
2022/02/07 08:41:04;;;;;;;24.48;10.65;;;;;;;0.12;69.24;98344.84;5022554;28;20041;-85
2022/02/07 08:43:51;;;;;;;20.63;9.32;;;;;;;1.35;69.10;98533.75;5025331;28;20564;-81
2022/02/07 08:46:28;;;;;;;19.67;9.23;;;;;;;0.88;69.06;98460.75;5014042;28;20048;-82
2022/02/07 08:48:53;;;;;;;19.77;10.23;;;;;;;0.43;69.33;98352.81;5012108;28;20064;-79
2022/02/07 08:51:20;;;;;;;17.75;9.52;;;;;;;1.50;68.79;98513.34;4999884;28;20034;-80
2022/02/07 08:53:48;;;;;;;20.60;10.75;;;;;;;1.70;68.49;98512.59;5015002;28;20044;-79
2022/02/07 08:56:16;;;;;;;16.63;8.85;;;;;;;1.19;68.47;98417.41;5009848;28;20136;-80
2022/02/07 08:58:49;;;;;;;21.95;10.40;;;;;;;1.50;68.92;98426.16;4997356;28;20048;-83
2022/02/07 09:01:29;;;;;;;19.65;10.27;;;;;;;1.47;68.54;98387.69;4989533;28;20072;-82
2022/02/07 09:06:42;;;;;;;15.43;8.60;;;;;;;1.71;68.35;98382.69;5029363;28;20092;-82
2022/02/07 09:09:16;;;;;;;13.95;8.60;;;;;;;1.99;67.49;98423.84;4997869;28;20046;-82
2022/02/07 09:11:42;;;;;;;18.52;9.45;;;;;;;1.85;67.64;98406.66;5027424;28;20496;-80
2022/02/07 09:14:11;;;;;;;16.73;7.70;;;;;;;1.62;67.55;98338.19;5023838;28;20060;-79
2022/02/07 09:16:39;;;;;;;11.30;6.65;;;;;;;1.86;66.96;98375.03;5009108;28;20065;-81
2022/02/07 09:19:05;;;;;;;16.17;8.57;;;;;;;2.45;67.20;98465.03;5008637;28;20132;-81
2022/02/07 09:21:35;;;;;;;19.23;9.52;;;;;;;2.44;67.51;98490.72;5026099;28;20053;-80
2022/02/07 09:24:02;;;;;;;23.08;10.23;;;;;;;2.33;67.50;98455.59;5023626;28;20037;-80
2022/02/07 09:26:28;;;;;;;19.92;9.30;;;;;;;1.49;67.01;98296.25;5020874;28;20075;-79
2022/02/07 09:28:55;;;;;;;15.43;7.57;;;;;;;2.20;66.70;98420.47;5026004;28;20049;-80
2022/02/07 09:31:24;;;;;;;20.90;9.75;;;;;;;2.21;66.21;98430.72;4977450;28;20480;-78
2022/02/07 09:33:53;;;;;;;24.95;10.32;;;;;;;2.37;66.87;98456.47;5005205;28;20142;-82
2022/02/07 09:36:28;;;;;;;13.35;7.78;;;;;;;1.77;66.60;98395.50;5005961;28;20045;-81
2022/02/07 09:38:54;;;;;;;16.77;8.65;;;;;;;1.99;66.51;98413.56;5005273;28;20072;-82
2022/02/07 09:41:21;;;;;;;13.00;7.82;;;;;;;2.14;66.52;98431.59;5022558;28;20145;-79
2022/02/07 09:43:49;;;;;;;12.65;7.32;;;;;;;2.21;66.14;98437.59;5006595;28;20045;-80
2022/02/07 09:46:22;;;;;;;16.70;7.78;;;;;;;1.94;66.03;98416.09;5005085;28;20033;-80
2022/02/07 09:48:53;;;;;;;12.38;6.85;;;;;;;1.98;65.82;98420.41;5014416;28;21064;-79
2022/02/07 09:51:19;;;;;;;15.52;7.05;;;;;;;1.19;65.71;98310.66;5003290;28;20038;-82
2022/02/07 09:53:46;;;;;;;13.27;8.40;;;;;;;1.45;65.81;98350.91;5025320;28;20069;-81
2022/02/07 09:56:15;;;;;;;16.25;8.27;;;;;;;2.38;66.12;98481.28;4994340;28;20500;-82
2022/02/07 09:58:42;;;;;;;12.65;7.25;;;;;;;1.79;66.05;98373.28;4981571;28;20072;-81
2022/02/07 10:01:23;;;;;;;13.65;7.38;;;;;;;1.72;65.42;98390.38;5016875;28;20061;-82
2022/02/07 10:04:07;;;;;;;15.03;7.57;;;;;;;1.99;65.36;98434.94;4996539;28;20088;-83
2022/02/07 10:07:00;;;;;;;13.43;7.45;;;;;;;1.80;64.89;98403.22;5012316;28;20073;-82
2022/02/07 10:12:29;;;;;;;16.45;7.68;;;;;;;2.00;65.44;98481.97;5021739;28;20059;-82
2022/02/07 10:17:36;;;;;;;13.65;7.15;;;;;;;2.21;65.70;98476.09;5024341;28;20041;-82
2022/02/07 10:37:56;;;;;;;14.63;7.25;;;;;;;2.37;64.16;98497.53;5039352;28;20048;-81
2022/02/07 10:41:19;;;;;;;13.00;6.90;;;;;;;2.24;64.25;98482.09;5006385;28;20069;-82
2022/02/07 10:46:10;;;;;;;15.40;7.38;;;;;;;1.22;64.69;98296.13;5028124;28;20049;-83
2022/02/07 10:48:42;;;;;;;15.38;8.30;;;;;;;2.29;63.86;98478.69;5005804;28;20152;-82
2022/02/07 10:51:12;;;;;;;13.15;7.97;;;;;;;2.24;63.81;98466.69;5038249;28;20513;-82
2022/02/07 10:53:41;;;;;;;15.77;7.70;;;;;;;1.60;64.50;98349.28;5017464;28;20436;-78
2022/02/07 10:56:08;;;;;;;16.10;7.97;;;;;;;2.18;64.72;98430.75;5012193;28;20041;-82
2022/02/07 10:58:34;;;;;;;15.63;8.50;;;;;;;2.39;63.64;98470.16;5014602;28;20045;-79
2022/02/07 11:01:08;;;;;;;17.63;9.68;;;;;;;2.30;64.45;98447.91;5026367;28;20098;-80
2022/02/07 11:06:34;;;;;;;29.05;12.60;;;;;;;2.29;63.71;98429.91;4992381;28;20540;-81
2022/02/07 11:11:46;;;;;;;21.67;10.90;;;;;;;2.02;63.30;98378.50;5001519;28;20037;-78
2022/02/07 11:14:34;;;;;;;23.52;11.52;;;;;;;2.53;63.32;98465.06;5033927;28;20038;-81
2022/02/07 11:19:53;;;;;;;40.25;15.52;;;;;;;2.15;63.57;98393.94;5014542;28;20451;-79
2022/02/07 11:22:50;;;;;;;38.53;14.88;;;;;;;2.57;64.04;98461.63;5026455;28;20040;-80
2022/02/07 11:27:52;;;;;;;31.38;13.50;;;;;;;2.43;63.27;98460.75;5007896;28;20038;-79
2022/02/07 11:30:51;;;;;;;23.58;11.48;;;;;;;2.35;62.73;98464.16;5027260;28;20040;-79
2022/02/07 11:33:49;;;;;;;16.10;9.00;;;;;;;2.33;63.39;98467.56;5026260;28;20127;-79
2022/02/07 11:36:23;;;;;;;15.38;6.97;;;;;;;2.32;63.77;98464.13;5012197;28;20049;-79
2022/02/07 11:38:57;;;;;;;15.25;7.82;;;;;;;2.23;62.56;98464.97;5005608;28;20091;-80
2022/02/07 11:44:38;;;;;;;13.65;7.15;;;;;;;2.30;63.62;98468.44;5026197;28;20041;-81
2022/02/07 11:47:15;;;;;;;14.40;6.75;;;;;;;2.21;63.61;98437.59;5003840;28;20165;-79
2022/02/07 11:49:46;;;;;;;12.93;7.10;;;;;;;2.34;62.87;98447.03;5026735;28;20037;-80
2022/02/07 11:52:26;;;;;;;14.55;6.78;;;;;;;2.35;62.98;98456.44;5006720;28;20052;-77
2022/02/07 11:55:06;;;;;;;11.18;6.47;;;;;;;2.34;63.31;98457.28;5006879;28;20100;-78
2022/02/07 11:57:37;;;;;;;16.17;7.65;;;;;;;2.37;62.86;98462.44;5011762;28;20074;-78
2022/02/07 12:00:16;;;;;;;14.85;7.75;;;;;;;2.39;62.44;98471.00;4994516;28;20041;-78
2022/02/07 12:02:49;;;;;;;15.38;8.10;;;;;;;2.37;63.11;98462.44;5010516;28;20049;-80
2022/02/07 12:05:22;;;;;;;15.63;8.02;;;;;;;2.28;63.43;98452.16;4988734;28;20065;-81
2022/02/07 12:07:59;;;;;;;20.15;10.05;;;;;;;2.31;63.42;98449.63;5005064;28;20037;-79
2022/02/07 12:10:34;;;;;;;19.27;8.73;;;;;;;2.44;63.55;98457.34;4992333;28;20511;-80
2022/02/07 12:13:45;;;;;;;15.40;8.15;;;;;;;2.28;63.24;98451.28;5022997;28;20072;-79
2022/02/07 12:16:23;;;;;;;14.38;8.77;;;;;;;2.30;63.62;98468.44;4924445;28;20054;-80
2022/02/07 12:18:58;;;;;;;19.02;8.20;;;;;;;2.29;63.22;98448.75;5018136;28;20046;-81
2022/02/07 12:21:26;;;;;;;;;;;;;;;2.25;62.68;98452.16;5011205;28;20037;-79
2022/02/07 12:23:57;;;;;;;14.98;7.30;;;;;;;2.25;63.04;98453.00;5005520;28;19917;-78
2022/02/07 12:26:24;;;;;;;17.13;8.43;;;;;;;2.24;63.52;98455.56;5004009;28;20053;-80
2022/02/07 12:28:57;;;;;;;14.63;7.88;;;;;;;2.22;63.07;98462.41;4988985;28;20559;-79
2022/02/07 12:31:25;;;;;;;16.45;7.32;;;;;;;1.87;62.84;98404.13;5011534;28;20354;-78
2022/02/07 12:33:53;;;;;;;16.75;8.43;;;;;;;2.16;63.06;98444.41;5010911;28;20195;-80
2022/02/07 12:36:19;;;;;;;14.32;7.70;;;;;;;2.19;63.27;98440.16;5010742;28;20509;-77
2022/02/07 12:38:48;;;;;;;14.68;6.53;;;;;;;2.25;63.14;98453.00;5025416;28;20135;-80
2022/02/07 12:41:16;;;;;;;12.18;6.30;;;;;;;2.29;63.08;98437.59;4983596;28;20049;-78
2022/02/07 12:43:44;;;;;;;13.70;6.50;;;;;;;2.19;62.99;98440.16;5023580;28;20044;-80
2022/02/07 12:46:14;;;;;;;15.25;7.45;;;;;;;2.06;63.20;98423.00;4996434;28;20620;-79
2022/02/07 12:49:01;;;;;;;12.27;6.40;;;;;;;2.18;63.07;98437.56;5009151;28;20041;-78
2022/02/07 12:51:30;;;;;;;12.38;6.75;;;;;;;2.23;62.84;98461.56;5007450;28;20060;-81
2022/02/07 12:53:57;;;;;;;12.63;7.55;;;;;;;2.07;63.39;98430.72;5009360;28;20049;-79
2022/02/07 12:56:26;;;;;;;12.77;7.07;;;;;;;2.11;63.75;98423.88;5010960;28;20509;-79
2022/02/07 12:58:52;;;;;;;14.90;7.00;;;;;;;2.17;63.05;98425.59;5023315;28;20509;-79
2022/02/07 13:01:27;;;;;;;14.82;7.32;;;;;;;2.30;63.52;98449.59;5025478;28;20049;-79
2022/02/07 13:04:04;;;;;;;15.07;7.18;;;;;;;2.29;63.48;98456.44;4990986;28;20041;-79
2022/02/07 13:06:37;;;;;;;14.00;7.32;;;;;;;2.20;63.24;98461.53;5031746;28;20045;-78
2022/02/07 13:09:20;;;;;;;15.15;7.85;;;;;;;2.18;63.71;98461.56;5013539;28;20045;-80
2022/02/07 13:11:49;;;;;;;18.70;7.55;;;;;;;2.08;63.52;98480.31;5009280;28;20045;-80
2022/02/07 13:14:20;;;;;;;16.55;8.38;;;;;;;1.62;62.54;98412.56;5010790;28;20057;-78
2022/02/07 13:16:46;;;;;;;19.33;8.73;;;;;;;1.39;63.27;98373.13;5001351;28;20045;-80
2022/02/07 13:19:18;;;;;;;15.63;8.48;;;;;;;1.84;63.26;98450.28;5016167;28;20037;-79
2022/02/07 13:21:46;;;;;;;16.02;8.85;;;;;;;1.86;63.73;98454.56;5023314;28;20054;-80
2022/02/07 13:24:19;;;;;;;15.93;8.80;;;;;;;1.82;64.05;98447.69;5025829;28;20045;-79
2022/02/07 13:26:54;;;;;;;22.38;10.95;;;;;;;1.75;64.13;98426.28;5028837;28;20021;-79
2022/02/07 13:29:29;;;;;;;37.05;14.48;;;;;;;1.67;64.51;98406.59;5026283;28;20108;-81
2022/02/07 13:31:57;;;;;;;32.15;13.02;;;;;;;2.05;64.04;98447.81;5024273;28;20392;-79
2022/02/07 13:34:26;;;;;;;27.60;12.45;;;;;;;1.96;64.31;98422.09;5042331;28;20057;-81
2022/02/07 13:36:52;;;;;;;23.60;11.00;;;;;;;1.93;64.27;98415.25;5028487;28;20041;-81
2022/02/07 13:39:20;;;;;;;16.45;8.35;;;;;;;1.92;64.21;98418.69;5023785;28;20041;-80
2022/02/07 13:42:07;;;;;;;18.88;10.00;;;;;;;1.89;63.37;98439.19;5034615;28;20075;-80
2022/02/07 13:44:41;;;;;;;19.92;9.15;;;;;;;1.31;63.92;98373.06;5020078;28;20048;-79
2022/02/07 13:47:07;;;;;;;14.63;8.85;;;;;;;1.45;63.25;98424.44;5003592;28;20052;-79
2022/02/07 13:49:33;;;;;;;14.50;8.52;;;;;;;1.57;63.90;98447.56;4978460;28;20034;-79
2022/02/07 13:51:59;;;;;;;16.08;8.23;;;;;;;1.46;64.43;98444.94;5023816;28;20122;-78
2022/02/07 13:54:30;;;;;;;18.83;8.52;;;;;;;1.61;64.82;98453.59;4979619;28;20103;-78
2022/02/07 13:57:00;;;;;;;20.23;8.13;;;;;;;1.55;64.13;98458.66;5020983;28;20080;-78
2022/02/07 13:59:35;;;;;;;22.90;9.32;;;;;;;1.49;64.63;98451.81;5006443;28;20099;-80
2022/02/07 14:02:01;;;;;;;19.83;9.23;;;;;;;1.45;64.51;98452.63;4980647;28;20159;-78
2022/02/07 14:04:30;;;;;;;19.15;9.40;;;;;;;1.39;65.17;98439.75;5008539;28;20497;-81
2022/02/07 14:07:12;;;;;;;20.52;9.90;;;;;;;1.26;65.10;98423.44;5010834;28;20033;-79
2022/02/07 14:09:42;;;;;;;16.85;10.02;;;;;;;1.52;64.90;98459.53;5027661;28;20555;-78
2022/02/07 14:12:10;;;;;;;15.23;8.90;;;;;;;1.47;64.27;98463.75;5041287;28;20064;-78
2022/02/07 14:14:38;;;;;;;17.10;9.55;;;;;;;1.20;64.98;98431.94;5028965;28;20048;-81
2022/02/07 14:17:05;;;;;;;17.52;9.57;;;;;;;1.30;64.80;98443.13;5018475;28;20051;-79
2022/02/07 14:19:46;;;;;;;15.55;8.07;;;;;;;1.33;64.58;98464.50;5017061;28;20045;-79
2022/02/07 14:22:12;;;;;;;15.77;7.63;;;;;;;1.23;65.50;98456.72;5041078;28;20040;-78
2022/02/07 14:24:39;;;;;;;15.75;7.47;;;;;;;1.32;65.70;98450.00;5041424;28;20049;-78